createdAt,value
2023-03-25T00:00:20.938Z,9.20
2023-03-25T00:02:51.740Z,9.20
2023-03-25T00:05:21.727Z,9.10
2023-03-25T00:07:52.975Z,9.00
2023-03-25T00:10:20.439Z,8.90
2023-03-25T00:12:47.723Z,8.90
2023-03-25T00:15:16.597Z,8.80
2023-03-25T00:17:44.836Z,8.80
2023-03-25T00:20:14.195Z,8.70
2023-03-25T00:22:44.282Z,8.70
2023-03-25T00:25:17.894Z,8.60
2023-03-25T00:27:50.185Z,8.60
2023-03-25T00:30:19.450Z,8.50
2023-03-25T00:32:50.977Z,8.50
2023-03-25T00:35:20.195Z,8.50
2023-03-25T00:37:57.481Z,8.40
2023-03-25T00:40:26.466Z,8.20
2023-03-25T00:42:53.748Z,8.10
2023-03-25T00:45:21.196Z,8.10
2023-03-25T00:47:48.693Z,8.00
2023-03-25T00:50:16.163Z,8.00
2023-03-25T00:52:43.260Z,8.00
2023-03-25T00:55:10.914Z,7.90
2023-03-25T00:57:38.084Z,8.10
2023-03-25T01:00:09.559Z,8.30
2023-03-25T01:02:39.611Z,8.20
2023-03-25T01:05:07.935Z,8.30
2023-03-25T01:07:35.792Z,8.10
2023-03-25T01:10:04.601Z,8.20
2023-03-25T01:12:31.782Z,8.20
2023-03-25T01:14:58.925Z,8.20
2023-03-25T01:17:26.167Z,8.20
2023-03-25T01:19:53.256Z,8.20
2023-03-25T01:22:20.366Z,8.20
2023-03-25T01:24:47.474Z,8.40
2023-03-25T01:27:14.545Z,8.30
2023-03-25T01:29:42.597Z,8.30
2023-03-25T01:32:09.807Z,8.30
2023-03-25T01:34:38.855Z,8.30
2023-03-25T01:37:06.536Z,8.40
2023-03-25T01:39:33.843Z,8.40
2023-03-25T01:42:01.140Z,8.40
2023-03-25T01:44:29.282Z,8.40
2023-03-25T01:47:01.804Z,8.40
2023-03-25T01:49:40.871Z,8.30
2023-03-25T01:52:24.673Z,8.30
2023-03-25T01:54:54.258Z,8.20
2023-03-25T01:57:23.801Z,8.30
2023-03-25T01:59:54.438Z,8.20
2023-03-25T02:02:25.295Z,8.10
2023-03-25T02:05:02.336Z,7.90
2023-03-25T02:07:32.737Z,7.70
2023-03-25T02:10:02.903Z,7.60
2023-03-25T02:12:30.001Z,7.40
2023-03-25T02:15:00.813Z,7.30
2023-03-25T02:17:39.612Z,7.10
2023-03-25T02:20:30.649Z,6.90
2023-03-25T02:23:28.828Z,6.80
2023-03-25T02:26:58.023Z,6.70
2023-03-25T02:29:49.211Z,6.70
2023-03-25T02:32:56.881Z,6.60
2023-03-25T02:35:57.833Z,6.50
2023-03-25T02:38:51.986Z,6.50
2023-03-25T02:41:45.849Z,6.50
2023-03-25T02:44:17.279Z,6.50
2023-03-25T02:47:01.443Z,6.40
2023-03-25T02:49:32.586Z,6.50
2023-03-25T02:52:17.619Z,6.60
2023-03-25T02:54:47.630Z,6.60
2023-03-25T02:57:19.618Z,6.50
2023-03-25T02:59:49.094Z,6.50
2023-03-25T03:02:17.627Z,6.50
2023-03-25T03:04:56.056Z,6.50
2023-03-25T03:07:28.552Z,6.60
2023-03-25T03:10:26.927Z,6.50
2023-03-25T03:13:30.540Z,6.50
2023-03-25T03:16:24.998Z,6.40
2023-03-25T03:19:21.337Z,6.50
2023-03-25T03:22:39.641Z,6.50
2023-03-25T03:25:33.894Z,6.50
2023-03-25T03:28:29.329Z,6.50
2023-03-25T03:31:07.022Z,6.60
2023-03-25T03:33:50.796Z,6.60
2023-03-25T03:36:24.688Z,6.60
2023-03-25T03:39:19.993Z,6.70
2023-03-25T03:41:52.716Z,6.60
2023-03-25T03:44:26.491Z,6.60
2023-03-25T03:47:14.090Z,6.60
2023-03-25T03:49:52.696Z,6.70
2023-03-25T03:52:30.462Z,6.70
2023-03-25T03:55:04.570Z,6.80
2023-03-25T03:57:43.081Z,6.70
2023-03-25T04:00:16.798Z,6.70
2023-03-25T04:02:55.157Z,6.60
2023-03-25T04:05:23.859Z,6.60
2023-03-25T04:07:59.134Z,6.50
2023-03-25T04:10:47.051Z,6.60
2023-03-25T04:13:16.381Z,6.60
2023-03-25T04:15:43.789Z,6.60
2023-03-25T04:18:12.199Z,6.60
2023-03-25T04:20:44.853Z,6.60
2023-03-25T04:23:16.709Z,6.80
2023-03-25T04:25:49.965Z,6.80
2023-03-25T04:28:18.927Z,6.80
2023-03-25T04:30:46.457Z,6.80
2023-03-25T04:33:13.909Z,6.80
2023-03-25T04:35:41.301Z,6.80
2023-03-25T04:38:08.992Z,6.80
2023-03-25T04:40:36.120Z,6.80
2023-03-25T04:43:03.323Z,6.80
2023-03-25T04:45:30.802Z,6.80
2023-03-25T04:47:58.157Z,6.70
2023-03-25T04:50:28.996Z,7.00
2023-03-25T04:53:03.191Z,7.00
2023-03-25T04:55:30.289Z,7.10
2023-03-25T04:57:57.430Z,7.10
2023-03-25T05:00:26.789Z,7.00
2023-03-25T05:02:56.066Z,7.00
2023-03-25T05:05:26.036Z,6.90
2023-03-25T05:07:55.492Z,7.00
2023-03-25T05:10:25.228Z,6.90
2023-03-25T05:13:00.365Z,6.90
2023-03-25T05:15:28.483Z,7.00
2023-03-25T05:17:59.052Z,7.00
2023-03-25T05:20:26.224Z,7.00
2023-03-25T05:22:53.701Z,7.00
2023-03-25T05:25:25.983Z,7.00
2023-03-25T05:27:54.712Z,6.90
2023-03-25T05:30:21.810Z,6.90
2023-03-25T05:32:56.687Z,7.00
2023-03-25T05:35:26.773Z,7.00
2023-03-25T05:37:54.034Z,6.90
2023-03-25T05:40:21.586Z,6.90
2023-03-25T05:42:49.912Z,6.90
2023-03-25T05:45:17.200Z,6.90
2023-03-25T05:47:44.684Z,7.00
2023-03-25T05:50:12.245Z,6.90
2023-03-25T05:52:41.804Z,7.00
2023-03-25T05:55:20.891Z,7.00
2023-03-25T05:57:50.058Z,7.00
2023-03-25T06:00:19.782Z,6.90
2023-03-25T06:02:51.477Z,6.90
2023-03-25T06:05:23.714Z,7.00
2023-03-25T06:07:51.297Z,6.90
2023-03-25T06:10:19.094Z,7.00
2023-03-25T06:12:48.287Z,7.00
2023-03-25T06:15:29.400Z,7.10
2023-03-25T06:17:57.574Z,7.00
2023-03-25T06:20:24.655Z,7.20
2023-03-25T06:22:52.015Z,7.20
2023-03-25T06:25:21.144Z,7.30
2023-03-25T06:27:50.564Z,7.20
2023-03-25T06:30:21.170Z,7.20
2023-03-25T06:32:52.638Z,7.20
2023-03-25T06:35:21.543Z,7.20
2023-03-25T06:37:51.221Z,7.20
2023-03-25T06:40:18.468Z,7.30
2023-03-25T06:42:46.220Z,7.30
2023-03-25T06:45:13.798Z,7.40
2023-03-25T06:47:40.926Z,7.40
2023-03-25T06:50:10.363Z,7.30
2023-03-25T06:52:37.539Z,7.30
2023-03-25T06:55:04.945Z,7.40
2023-03-25T06:57:32.060Z,7.50
2023-03-25T06:59:59.133Z,7.60
2023-03-25T07:02:26.271Z,7.70
2023-03-25T07:04:53.688Z,7.70
2023-03-25T07:07:21.107Z,7.80
2023-03-25T07:09:56.144Z,7.80
2023-03-25T07:12:23.881Z,7.80
2023-03-25T07:14:55.728Z,7.80
2023-03-25T07:17:23.348Z,7.70
2023-03-25T07:19:51.251Z,7.80
2023-03-25T07:22:18.734Z,7.80
2023-03-25T07:24:46.249Z,7.90
2023-03-25T07:27:15.855Z,7.90
2023-03-25T07:29:42.993Z,8.10
2023-03-25T07:32:10.440Z,8.30
2023-03-25T07:34:38.273Z,8.50
2023-03-25T07:37:05.440Z,8.60
2023-03-25T07:39:32.518Z,8.70
2023-03-25T07:42:00.799Z,8.80
2023-03-25T07:44:28.004Z,8.90
2023-03-25T07:46:55.269Z,9.00
2023-03-25T07:49:22.352Z,9.00
2023-03-25T07:51:51.229Z,9.00
2023-03-25T07:54:18.638Z,9.10
2023-03-25T07:56:46.042Z,9.20
2023-03-25T07:59:13.192Z,9.20
2023-03-25T08:01:40.572Z,9.20
2023-03-25T08:04:07.756Z,9.30
2023-03-25T08:06:34.859Z,9.40
2023-03-25T08:09:02.008Z,9.60
2023-03-25T08:11:29.080Z,9.50
2023-03-25T08:13:56.370Z,9.60
2023-03-25T08:16:23.589Z,9.80
2023-03-25T08:18:53.006Z,9.80
2023-03-25T08:21:27.998Z,9.80
2023-03-25T08:24:02.362Z,9.80
2023-03-25T08:26:31.324Z,9.70
2023-03-25T08:28:59.794Z,9.60
2023-03-25T08:31:31.233Z,9.40
2023-03-25T08:34:03.470Z,9.40
2023-03-25T08:36:31.234Z,9.50
2023-03-25T08:38:58.348Z,9.60
2023-03-25T08:41:25.631Z,9.70
2023-03-25T08:43:52.732Z,9.80
2023-03-25T08:46:19.986Z,10.00
2023-03-25T08:48:50.156Z,10.10
2023-03-25T08:51:17.949Z,10.20
2023-03-25T08:53:45.069Z,10.30
2023-03-25T08:56:12.210Z,10.40
2023-03-25T08:58:39.529Z,10.40
2023-03-25T09:01:07.607Z,10.50
2023-03-25T09:03:34.824Z,10.30
2023-03-25T09:06:09.330Z,10.10
2023-03-25T09:08:37.514Z,9.80
2023-03-25T09:11:05.489Z,9.50
2023-03-25T09:13:32.624Z,9.30
2023-03-25T09:15:59.832Z,9.30
2023-03-25T09:18:26.968Z,9.20
2023-03-25T09:21:00.432Z,9.20
2023-03-25T09:23:28.069Z,9.30
2023-03-25T09:25:56.737Z,9.50
2023-03-25T09:28:23.880Z,9.60
2023-03-25T09:30:51.553Z,9.70
2023-03-25T09:33:19.388Z,9.60
2023-03-25T09:35:47.387Z,9.40
2023-03-25T09:38:14.788Z,9.40
2023-03-25T09:40:46.081Z,9.50
2023-03-25T09:43:37.958Z,9.50
2023-03-25T09:46:06.559Z,9.30
2023-03-25T09:48:47.049Z,9.10
2023-03-25T09:51:41.520Z,8.80
2023-03-25T09:54:26.039Z,8.70
2023-03-25T09:56:58.149Z,8.70
2023-03-25T09:59:41.006Z,8.70
2023-03-25T10:02:39.451Z,8.60
2023-03-25T10:05:40.380Z,8.60
2023-03-25T10:09:01.156Z,8.70
2023-03-25T10:12:04.569Z,8.80
2023-03-25T10:14:57.989Z,9.00
2023-03-25T10:18:02.961Z,9.00
2023-03-25T10:20:48.899Z,9.00
2023-03-25T10:23:46.849Z,9.40
2023-03-25T10:26:32.589Z,9.70
2023-03-25T10:29:13.053Z,9.90
2023-03-25T10:31:52.456Z,10.20
2023-03-25T10:34:31.193Z,10.40
2023-03-25T10:37:00.462Z,10.30
2023-03-25T10:39:38.314Z,10.40
2023-03-25T10:42:37.725Z,10.70
2023-03-25T10:45:14.650Z,11.00
2023-03-25T10:47:45.474Z,11.40
2023-03-25T10:50:17.720Z,11.60
2023-03-25T10:52:50.676Z,11.90
2023-03-25T10:55:37.983Z,11.90
2023-03-25T10:58:05.488Z,11.60
2023-03-25T11:00:32.770Z,11.30
2023-03-25T11:03:02.216Z,11.10
2023-03-25T11:05:30.200Z,11.00
2023-03-25T11:08:14.715Z,10.80
2023-03-25T11:10:49.797Z,10.50
2023-03-25T11:13:22.113Z,9.70
2023-03-25T11:15:50.222Z,9.30
2023-03-25T11:18:33.848Z,8.70
2023-03-25T11:21:08.528Z,8.30
2023-03-25T11:23:46.496Z,8.20
2023-03-25T11:26:27.565Z,8.20
2023-03-25T11:29:08.634Z,8.10
2023-03-25T11:31:37.825Z,7.90
2023-03-25T11:34:21.783Z,8.10
2023-03-25T11:36:53.067Z,8.40
2023-03-25T11:39:34.176Z,8.70
2023-03-25T11:42:15.783Z,8.90
2023-03-25T11:44:50.532Z,8.90
2023-03-25T11:47:27.220Z,8.80
2023-03-25T11:49:54.844Z,8.90
2023-03-25T11:52:27.603Z,9.10
2023-03-25T11:54:56.155Z,9.30
2023-03-25T11:57:28.861Z,9.30
2023-03-25T12:00:40.434Z,9.20
2023-03-25T12:03:20.285Z,9.30
2023-03-25T12:06:20.199Z,9.50
2023-03-25T12:08:52.936Z,10.20
2023-03-25T12:11:40.257Z,10.90
2023-03-25T12:14:29.461Z,11.80
2023-03-25T12:17:31.088Z,12.10
2023-03-25T12:20:31.038Z,12.90
2023-03-25T12:23:24.165Z,13.50
2023-03-25T12:26:19.731Z,13.90
2023-03-25T12:29:10.628Z,13.40
2023-03-25T12:32:23.791Z,13.80
2023-03-25T12:34:59.846Z,13.70
2023-03-25T12:38:14.853Z,13.30
2023-03-25T12:41:21.599Z,12.60
2023-03-25T12:44:03.425Z,12.20
2023-03-25T12:46:49.134Z,11.80
2023-03-25T12:49:46.593Z,11.60
2023-03-25T12:52:23.711Z,11.60
2023-03-25T12:55:18.500Z,11.90
2023-03-25T12:58:21.170Z,12.10
2023-03-25T13:01:24.342Z,11.90
2023-03-25T13:04:19.109Z,12.00
2023-03-25T13:07:07.766Z,12.60
2023-03-25T13:09:55.301Z,12.30
2023-03-25T13:12:42.313Z,11.80
2023-03-25T13:15:36.624Z,11.20
2023-03-25T13:18:15.024Z,10.50
2023-03-25T13:20:51.653Z,10.00
2023-03-25T13:23:23.663Z,9.80
2023-03-25T13:26:06.577Z,9.60
2023-03-25T13:28:43.635Z,9.60
2023-03-25T13:31:18.685Z,9.80
2023-03-25T13:34:02.556Z,10.10
2023-03-25T13:36:42.698Z,10.20
2023-03-25T13:39:48.544Z,10.50
2023-03-25T13:42:39.483Z,10.80
2023-03-25T13:45:09.723Z,11.80
2023-03-25T13:47:51.290Z,12.40
2023-03-25T13:50:31.656Z,12.50
2023-03-25T13:53:13.798Z,12.10
2023-03-25T13:56:24.770Z,11.80
2023-03-25T13:59:20.257Z,11.40
2023-03-25T14:02:30.699Z,11.20
2023-03-25T14:05:06.902Z,11.10
2023-03-25T14:07:56.279Z,10.90
2023-03-25T14:10:47.882Z,10.90
2023-03-25T14:13:25.302Z,11.20
2023-03-25T14:16:08.263Z,12.00
2023-03-25T14:19:14.047Z,12.70
2023-03-25T14:21:47.030Z,12.60
2023-03-25T14:24:32.241Z,13.20
2023-03-25T14:27:30.323Z,14.10
2023-03-25T14:30:20.677Z,13.90
2023-03-25T14:32:48.069Z,13.80
2023-03-25T14:35:33.726Z,13.90
2023-03-25T14:38:09.935Z,14.00
2023-03-25T14:40:47.881Z,14.30
2023-03-25T14:43:54.548Z,14.10
2023-03-25T14:46:23.915Z,13.40
2023-03-25T14:49:05.922Z,13.00
2023-03-25T14:51:34.995Z,12.80
2023-03-25T14:54:17.677Z,12.70
2023-03-25T14:56:53.879Z,12.70
2023-03-25T14:59:37.144Z,12.50
2023-03-25T15:02:31.880Z,12.50
2023-03-25T15:05:13.201Z,12.40
2023-03-25T15:07:56.804Z,12.30
2023-03-25T15:10:39.227Z,12.30
2023-03-25T15:13:13.979Z,12.40
2023-03-25T15:15:50.898Z,12.50
2023-03-25T15:18:36.301Z,12.60
2023-03-25T15:21:11.934Z,12.70
2023-03-25T15:23:59.225Z,12.60
2023-03-25T15:26:32.594Z,12.70
2023-03-25T15:29:31.575Z,13.40
2023-03-25T15:32:18.430Z,14.00
2023-03-25T15:35:22.882Z,14.10
2023-03-25T15:38:26.718Z,13.90
2023-03-25T15:41:14.625Z,13.50
2023-03-25T15:44:05.713Z,13.20
2023-03-25T15:47:15.798Z,13.10
2023-03-25T15:50:14.987Z,12.90
2023-03-25T15:53:13.370Z,12.70
2023-03-25T15:56:08.280Z,12.50
2023-03-25T15:58:48.652Z,12.30
2023-03-25T16:01:30.675Z,12.30
2023-03-25T16:04:28.097Z,12.20
2023-03-25T16:06:57.565Z,12.10
2023-03-25T16:09:28.929Z,12.00
2023-03-25T16:12:01.646Z,12.00
2023-03-25T16:14:33.624Z,11.90
2023-03-25T16:17:04.964Z,11.90
2023-03-25T16:19:43.451Z,11.80
2023-03-25T16:22:37.996Z,11.80
2023-03-25T16:25:14.764Z,11.80
2023-03-25T16:27:52.114Z,11.80
2023-03-25T16:30:29.251Z,11.80
2023-03-25T16:33:28.685Z,11.80
2023-03-25T16:36:01.165Z,11.70
2023-03-25T16:38:29.265Z,11.70
2023-03-25T16:41:08.133Z,11.70
2023-03-25T16:43:35.707Z,11.70
2023-03-25T16:46:06.006Z,11.90
2023-03-25T16:48:39.784Z,11.90
2023-03-25T16:51:25.637Z,11.80
2023-03-25T16:54:01.173Z,11.80
2023-03-25T16:56:34.233Z,11.70
2023-03-25T16:59:23.131Z,11.70
2023-03-25T17:01:57.850Z,11.60
2023-03-25T17:04:41.978Z,11.60
2023-03-25T17:07:21.035Z,11.60
2023-03-25T17:09:59.140Z,11.60
2023-03-25T17:12:28.786Z,11.60
2023-03-25T17:15:04.461Z,11.50
2023-03-25T17:17:53.578Z,11.60
2023-03-25T17:20:37.841Z,11.60
2023-03-25T17:23:34.493Z,11.50
2023-03-25T17:26:11.202Z,11.60
2023-03-25T17:28:54.655Z,11.50
2023-03-25T17:31:34.517Z,11.50
2023-03-25T17:34:20.410Z,11.50
2023-03-25T17:36:49.847Z,11.50
2023-03-25T17:39:29.156Z,11.40
2023-03-25T17:42:08.934Z,11.40
2023-03-25T17:44:38.921Z,11.40
2023-03-25T17:47:08.720Z,11.40
2023-03-25T17:49:35.777Z,11.40
2023-03-25T17:52:03.176Z,11.40
2023-03-25T17:54:31.657Z,11.40
2023-03-25T17:56:58.735Z,11.40
2023-03-25T17:59:27.653Z,11.30
2023-03-25T18:01:54.876Z,11.30
2023-03-25T18:04:22.350Z,10.70
2023-03-25T18:06:51.997Z,10.00
2023-03-25T18:09:25.049Z,9.60
2023-03-25T18:11:56.303Z,9.40
2023-03-25T18:14:24.763Z,9.30
2023-03-25T18:16:52.733Z,8.90
2023-03-25T18:19:24.227Z,8.50
2023-03-25T18:21:52.554Z,8.10
2023-03-25T18:24:20.498Z,7.90
2023-03-25T18:26:50.730Z,7.70
2023-03-25T18:29:24.472Z,7.50
2023-03-25T18:31:52.601Z,7.40
2023-03-25T18:34:20.973Z,7.30
2023-03-25T18:36:50.121Z,7.20
2023-03-25T18:39:22.252Z,7.10
2023-03-25T18:41:50.000Z,7.10
2023-03-25T18:44:17.205Z,7.10
2023-03-25T18:46:44.414Z,7.00
2023-03-25T18:49:15.661Z,7.00
2023-03-25T18:51:43.647Z,7.00
2023-03-25T18:54:11.364Z,7.10
2023-03-25T18:56:41.681Z,7.10
2023-03-25T18:59:11.367Z,7.20
2023-03-25T19:01:38.758Z,7.20
2023-03-25T19:04:06.027Z,7.30
2023-03-25T19:06:33.259Z,7.40
2023-03-25T19:09:00.912Z,7.40
2023-03-25T19:11:30.645Z,7.40
2023-03-25T19:13:57.674Z,7.40
2023-03-25T19:16:24.786Z,7.40
2023-03-25T19:18:52.028Z,7.40
2023-03-25T19:21:20.324Z,7.50
2023-03-25T19:23:47.947Z,7.50
2023-03-25T19:26:15.456Z,7.40
2023-03-25T19:28:42.718Z,7.50
2023-03-25T19:31:16.454Z,7.50
2023-03-25T19:33:44.007Z,7.50
2023-03-25T19:36:16.710Z,7.50
2023-03-25T19:38:43.969Z,7.50
2023-03-25T19:41:14.139Z,7.50
2023-03-25T19:43:41.327Z,7.50
2023-03-25T19:46:08.612Z,7.60
2023-03-25T19:48:36.262Z,7.60
2023-03-25T19:51:04.346Z,7.70
2023-03-25T19:53:31.647Z,7.70
2023-03-25T19:56:04.055Z,7.80
2023-03-25T19:58:31.498Z,7.80
2023-03-25T20:00:58.579Z,7.90
2023-03-25T20:03:26.775Z,8.00
2023-03-25T20:06:01.649Z,8.10
2023-03-25T20:08:30.068Z,8.10
2023-03-25T20:10:57.410Z,8.10
2023-03-25T20:13:25.087Z,8.10
2023-03-25T20:15:53.207Z,8.10
2023-03-25T20:18:21.234Z,8.20
2023-03-25T20:20:48.396Z,8.20
2023-03-25T20:23:15.473Z,8.20
2023-03-25T20:25:43.417Z,8.20
2023-03-25T20:28:10.892Z,8.20
2023-03-25T20:30:37.997Z,8.20
2023-03-25T20:33:05.599Z,8.20
2023-03-25T20:35:32.830Z,8.30
2023-03-25T20:38:00.055Z,8.30
2023-03-25T20:40:37.459Z,8.20
2023-03-25T20:43:09.976Z,8.20
2023-03-25T20:45:37.108Z,8.20
2023-03-25T20:48:05.866Z,8.30
2023-03-25T20:50:34.273Z,8.30
2023-03-25T20:53:01.550Z,8.30
2023-03-25T20:55:28.673Z,8.50
2023-03-25T20:57:55.759Z,8.50
2023-03-25T21:00:22.836Z,8.50
2023-03-25T21:02:52.435Z,8.50
2023-03-25T21:05:19.943Z,8.50
2023-03-25T21:07:47.865Z,8.50
2023-03-25T21:10:16.849Z,8.60
2023-03-25T21:12:45.005Z,8.60
2023-03-25T21:15:14.972Z,8.60
2023-03-25T21:17:42.924Z,8.60
2023-03-25T21:20:11.708Z,8.60
2023-03-25T21:22:44.363Z,8.70
2023-03-25T21:25:15.018Z,8.70
2023-03-25T21:27:44.948Z,8.60
2023-03-25T21:30:16.100Z,8.50
2023-03-25T21:32:43.616Z,8.40
2023-03-25T21:35:11.166Z,8.40
2023-03-25T21:37:39.994Z,8.50
2023-03-25T21:40:11.239Z,8.50
2023-03-25T21:42:41.549Z,8.50
2023-03-25T21:45:13.631Z,8.50
2023-03-25T21:47:42.368Z,8.50
2023-03-25T21:50:12.004Z,8.60
2023-03-25T21:52:47.103Z,8.60
2023-03-25T21:55:16.712Z,8.60
2023-03-25T21:57:45.181Z,8.50
2023-03-25T22:00:17.004Z,8.50
2023-03-25T22:02:45.911Z,8.50
2023-03-25T22:05:15.593Z,8.60
2023-03-25T22:07:42.889Z,8.60
2023-03-25T22:10:11.162Z,8.60
2023-03-25T22:12:38.405Z,8.50
2023-03-25T22:15:06.467Z,8.50
2023-03-25T22:17:33.557Z,8.50
2023-03-25T22:20:00.792Z,8.30
2023-03-25T22:22:27.977Z,8.30
2023-03-25T22:24:55.039Z,8.30
2023-03-25T22:27:22.332Z,8.30
2023-03-25T22:29:49.489Z,8.40
2023-03-25T22:32:16.867Z,8.40
2023-03-25T22:34:44.160Z,8.30
2023-03-25T22:37:11.312Z,8.30
2023-03-25T22:39:39.181Z,8.30
2023-03-25T22:42:06.563Z,8.20
2023-03-25T22:44:33.654Z,8.20
2023-03-25T22:47:01.146Z,8.30
2023-03-25T22:49:28.260Z,8.10
2023-03-25T22:51:55.969Z,8.10
2023-03-25T22:54:23.592Z,8.10
2023-03-25T22:56:50.834Z,8.10
2023-03-25T22:59:18.017Z,8.10
2023-03-25T23:01:45.409Z,8.10
2023-03-25T23:04:12.887Z,8.00
2023-03-25T23:06:41.867Z,8.00
2023-03-25T23:09:10.633Z,8.00
2023-03-25T23:11:38.535Z,8.00
2023-03-25T23:14:10.639Z,8.10
2023-03-25T23:16:39.011Z,8.10
2023-03-25T23:19:09.474Z,8.10
2023-03-25T23:21:36.625Z,8.10
2023-03-25T23:24:04.624Z,8.10
2023-03-25T23:26:39.404Z,8.10
2023-03-25T23:29:10.657Z,8.00
2023-03-25T23:31:41.959Z,8.10
2023-03-25T23:34:13.368Z,8.10
2023-03-25T23:36:42.463Z,8.00
2023-03-25T23:39:17.162Z,8.00
2023-03-25T23:41:44.489Z,7.90
2023-03-25T23:44:11.803Z,7.80
2023-03-25T23:46:39.481Z,7.80
2023-03-25T23:49:06.821Z,7.80
2023-03-25T23:51:41.449Z,7.70
2023-03-25T23:54:14.906Z,7.60
2023-03-25T23:56:42.725Z,7.70
2023-03-25T23:59:11.371Z,7.60
